createdAt,value
2022-12-20T00:02:30.205Z,64.88
2022-12-20T00:05:02.397Z,67.32
2022-12-20T00:07:34.602Z,62.30
2022-12-20T00:10:07.324Z,73.68
2022-12-20T00:12:39.228Z,63.45
2022-12-20T00:15:11.708Z,68.05
2022-12-20T00:17:43.761Z,76.22
2022-12-20T00:20:15.857Z,59.85
2022-12-20T00:22:47.771Z,66.97
2022-12-20T00:25:21.100Z,66.43
2022-12-20T00:27:53.063Z,65.03
2022-12-20T00:30:25.027Z,72.57
2022-12-20T00:32:56.999Z,71.68
2022-12-20T00:35:28.963Z,70.53
2022-12-20T00:38:00.972Z,75.70
2022-12-20T00:40:32.955Z,73.95
2022-12-20T00:43:04.940Z,56.78
2022-12-20T00:45:36.955Z,62.85
2022-12-20T00:48:08.946Z,68.55
2022-12-20T00:50:40.914Z,65.28
2022-12-20T00:53:12.976Z,65.30
2022-12-20T00:55:46.651Z,63.53
2022-12-20T00:58:18.652Z,68.53
2022-12-20T01:00:56.137Z,72.03
2022-12-20T01:03:29.406Z,70.82
2022-12-20T01:06:03.262Z,67.90
2022-12-20T01:08:35.250Z,67.80
2022-12-20T01:11:19.163Z,71.05
2022-12-20T01:13:54.308Z,68.05
2022-12-20T01:16:29.949Z,63.70
2022-12-20T01:19:02.768Z,65.70
2022-12-20T01:21:36.370Z,64.07
2022-12-20T01:24:12.424Z,70.68
2022-12-20T01:26:45.423Z,62.25
2022-12-20T01:29:18.616Z,64.70
2022-12-20T01:31:54.445Z,68.43
2022-12-20T01:34:26.447Z,63.78
2022-12-20T01:36:58.543Z,69.63
2022-12-20T01:39:30.438Z,76.88
2022-12-20T01:42:02.442Z,70.55
2022-12-20T01:44:43.538Z,69.05
2022-12-20T01:47:15.709Z,62.78
2022-12-20T01:49:52.868Z,67.82
2022-12-20T01:52:39.298Z,76.80
2022-12-20T01:55:17.786Z,68.70
2022-12-20T01:58:03.866Z,60.30
2022-12-20T02:00:37.616Z,67.35
2022-12-20T02:03:13.524Z,64.22
2022-12-20T02:05:47.377Z,60.00
2022-12-20T02:08:20.860Z,74.85
2022-12-20T02:11:11.105Z,62.47
2022-12-20T02:14:05.332Z,61.42
2022-12-20T02:16:48.754Z,66.57
2022-12-20T02:19:47.082Z,62.08
2022-12-20T02:22:37.831Z,62.97
2022-12-20T02:28:21.729Z,59.08
2022-12-20T02:30:58.466Z,56.78
2022-12-20T02:33:30.419Z,65.38
2022-12-20T02:36:04.613Z,65.38
2022-12-20T02:38:38.634Z,58.13
2022-12-20T02:41:14.284Z,65.40
2022-12-20T02:44:10.753Z,59.92
2022-12-20T02:46:43.467Z,58.20
2022-12-20T02:49:20.772Z,64.40
2022-12-20T02:51:54.975Z,59.80
2022-12-20T02:54:28.569Z,61.53
2022-12-20T02:57:20.553Z,58.47
2022-12-20T03:00:06.904Z,55.75
2022-12-20T03:02:58.483Z,53.55
2022-12-20T03:05:31.536Z,60.60
2022-12-20T03:08:03.590Z,57.33
2022-12-20T03:10:35.585Z,56.47
2022-12-20T03:13:07.841Z,51.50
2022-12-20T03:15:39.824Z,59.15
2022-12-20T03:18:12.223Z,54.13
2022-12-20T03:20:47.249Z,55.75
2022-12-20T03:23:22.735Z,59.60
2022-12-20T03:25:54.964Z,58.25
2022-12-20T03:28:27.400Z,60.25
2022-12-20T03:30:59.734Z,54.03
2022-12-20T03:33:31.873Z,60.47
2022-12-20T03:36:04.039Z,63.67
2022-12-20T03:38:36.010Z,70.05
2022-12-20T03:41:08.248Z,65.55
2022-12-20T03:43:40.221Z,58.45
2022-12-20T03:46:12.313Z,59.35
2022-12-20T03:48:44.828Z,54.22
2022-12-20T03:51:16.842Z,56.72
2022-12-20T03:53:49.044Z,63.05
2022-12-20T03:56:21.070Z,64.07
2022-12-20T03:58:53.032Z,56.67
2022-12-20T04:01:27.850Z,56.55
2022-12-20T04:04:00.037Z,57.97
2022-12-20T04:06:32.362Z,60.28
2022-12-20T04:09:04.567Z,58.20
2022-12-20T04:11:36.552Z,55.20
2022-12-20T04:14:08.749Z,61.50
2022-12-20T04:16:40.961Z,56.70
2022-12-20T04:19:13.168Z,60.17
2022-12-20T04:21:45.434Z,50.83
2022-12-20T04:24:17.682Z,56.42
2022-12-20T04:26:49.945Z,54.70
2022-12-20T04:29:22.035Z,55.47
2022-12-20T04:31:54.200Z,61.22
2022-12-20T04:34:26.311Z,64.45
2022-12-20T04:36:58.317Z,62.50
2022-12-20T04:39:30.328Z,53.67
2022-12-20T04:42:02.321Z,53.05
2022-12-20T04:44:34.288Z,46.22
2022-12-20T04:47:06.365Z,55.72
2022-12-20T04:49:38.485Z,61.53
2022-12-20T04:52:28.922Z,59.35
2022-12-20T04:55:00.903Z,59.17
2022-12-20T04:57:32.891Z,61.50
2022-12-20T05:00:05.222Z,57.65
2022-12-20T05:02:37.346Z,57.08
2022-12-20T05:05:09.797Z,60.20
2022-12-20T05:07:41.771Z,54.55
2022-12-20T05:10:13.806Z,55.17
2022-12-20T05:12:46.000Z,45.30
2022-12-20T05:15:18.201Z,53.35
2022-12-20T05:17:50.234Z,43.92
2022-12-20T05:20:22.211Z,43.55
2022-12-20T05:23:12.597Z,44.80
2022-12-20T05:26:09.680Z,48.67
2022-12-20T05:28:41.695Z,44.50
2022-12-20T05:31:13.767Z,44.47
2022-12-20T05:33:46.061Z,45.30
2022-12-20T05:36:18.582Z,45.60
2022-12-20T05:38:50.605Z,47.30
2022-12-20T05:41:22.722Z,44.10
2022-12-20T05:43:54.706Z,48.60
2022-12-20T05:46:26.866Z,47.95
2022-12-20T05:48:58.890Z,38.13
2022-12-20T05:51:30.999Z,45.33
2022-12-20T05:54:03.146Z,42.92
2022-12-20T05:56:35.169Z,36.88
2022-12-20T05:59:07.268Z,35.45
2022-12-20T06:01:39.452Z,47.50
2022-12-20T06:04:11.821Z,38.20
2022-12-20T06:06:44.137Z,38.90
2022-12-20T06:09:16.252Z,39.13
2022-12-20T06:11:48.321Z,38.90
2022-12-20T06:14:20.317Z,39.03
2022-12-20T06:16:53.628Z,41.15
2022-12-20T06:19:25.703Z,42.85
2022-12-20T06:21:58.690Z,43.13
2022-12-20T06:24:30.708Z,37.15
2022-12-20T06:27:03.637Z,41.67
2022-12-20T06:29:37.703Z,37.40
2022-12-20T06:32:09.953Z,42.15
2022-12-20T06:34:43.264Z,37.70
2022-12-20T06:37:15.431Z,43.10
2022-12-20T06:39:47.444Z,40.15
2022-12-20T06:42:19.551Z,40.65
2022-12-20T06:44:51.666Z,38.83
2022-12-20T06:47:23.785Z,38.22
2022-12-20T06:49:55.778Z,41.47
2022-12-20T06:52:27.899Z,53.15
2022-12-20T06:55:00.023Z,66.07
2022-12-20T06:57:32.053Z,80.07
2022-12-20T07:00:05.475Z,41.55
2022-12-20T07:02:38.024Z,38.40
2022-12-20T07:05:10.282Z,34.97
2022-12-20T07:07:45.107Z,36.03
2022-12-20T07:10:17.861Z,36.97
2022-12-20T07:12:49.856Z,38.25
2022-12-20T07:15:22.535Z,34.00
2022-12-20T07:17:54.488Z,34.78
2022-12-20T07:20:26.656Z,30.95
2022-12-20T07:22:58.936Z,33.22
2022-12-20T07:25:30.945Z,34.40
2022-12-20T07:28:03.658Z,38.88
2022-12-20T07:30:35.658Z,32.25
2022-12-20T07:33:08.032Z,31.10
2022-12-20T07:35:40.687Z,35.03
2022-12-20T07:38:15.898Z,32.08
2022-12-20T07:40:53.872Z,32.05
2022-12-20T07:43:25.904Z,33.75
2022-12-20T07:45:58.095Z,34.42
2022-12-20T07:48:30.294Z,36.30
2022-12-20T07:51:07.609Z,33.08
2022-12-20T07:53:45.204Z,36.35
2022-12-20T07:56:21.273Z,36.28
2022-12-20T07:58:58.642Z,34.60
2022-12-20T08:01:31.851Z,37.13
2022-12-20T08:04:08.207Z,34.75
2022-12-20T08:06:42.437Z,33.83
2022-12-20T08:09:15.949Z,36.75
2022-12-20T08:11:49.642Z,37.35
2022-12-20T08:14:22.180Z,34.85
2022-12-20T08:16:54.268Z,35.72
2022-12-20T08:19:31.989Z,35.25
2022-12-20T08:22:05.085Z,34.58
2022-12-20T08:24:37.117Z,37.30
2022-12-20T08:27:09.541Z,37.83
2022-12-20T08:29:41.673Z,31.73
2022-12-20T08:32:14.615Z,34.83
2022-12-20T08:34:46.589Z,33.97
2022-12-20T08:37:19.273Z,39.70
2022-12-20T08:39:51.314Z,43.95
2022-12-20T08:42:23.462Z,39.00
2022-12-20T08:44:55.445Z,38.08
2022-12-20T08:47:29.900Z,37.53
2022-12-20T08:50:02.212Z,35.65
2022-12-20T08:52:34.301Z,34.53
2022-12-20T08:55:07.198Z,36.95
2022-12-20T08:57:39.194Z,37.00
2022-12-20T09:00:11.866Z,30.73
2022-12-20T09:02:43.996Z,36.40
2022-12-20T09:05:16.185Z,38.50
2022-12-20T09:07:48.129Z,34.33
2022-12-20T09:10:20.180Z,35.50
2022-12-20T09:12:52.190Z,36.35
2022-12-20T09:15:24.248Z,32.97
2022-12-20T09:17:56.285Z,33.40
2022-12-20T09:20:29.245Z,36.05
2022-12-20T09:23:01.214Z,37.25
2022-12-20T09:25:33.596Z,47.28
2022-12-20T09:28:06.341Z,44.42
2022-12-20T09:30:38.328Z,46.75
2022-12-20T09:33:10.851Z,42.72
2022-12-20T09:35:49.053Z,38.53
2022-12-20T09:38:21.163Z,44.30
2022-12-20T09:40:56.637Z,45.08
2022-12-20T09:43:29.087Z,40.15
2022-12-20T09:46:03.616Z,42.63
2022-12-20T09:48:39.394Z,39.33
2022-12-20T09:51:11.356Z,41.13
2022-12-20T09:54:08.612Z,37.70
2022-12-20T09:56:46.454Z,36.55
2022-12-20T09:59:21.765Z,35.83
2022-12-20T10:01:53.733Z,37.60
2022-12-20T10:04:31.866Z,37.70
2022-12-20T10:07:33.709Z,34.83
2022-12-20T10:10:05.700Z,35.88
2022-12-20T10:13:18.132Z,32.78
2022-12-20T10:15:58.535Z,31.52
2022-12-20T10:19:10.417Z,34.03
2022-12-20T10:22:21.098Z,32.97
2022-12-20T10:25:12.654Z,33.63
2022-12-20T10:27:46.593Z,36.25
2022-12-20T10:30:24.684Z,31.42
2022-12-20T10:32:58.446Z,32.78
2022-12-20T10:35:41.363Z,37.70
2022-12-20T10:38:17.871Z,37.55
2022-12-20T10:41:21.444Z,39.63
2022-12-20T10:44:24.668Z,46.63
2022-12-20T10:46:59.825Z,42.63
2022-12-20T10:49:33.282Z,43.67
2022-12-20T10:52:14.452Z,42.00
2022-12-20T10:54:47.832Z,36.28
2022-12-20T10:57:29.508Z,37.25
2022-12-20T11:00:06.654Z,40.90
2022-12-20T11:02:42.307Z,39.55
2022-12-20T11:05:15.023Z,38.13
2022-12-20T11:10:49.587Z,37.50
2022-12-20T11:13:26.962Z,41.67
2022-12-20T11:16:02.040Z,38.45
2022-12-20T11:18:57.730Z,38.92
2022-12-20T11:22:10.809Z,41.85
2022-12-20T11:24:52.022Z,39.65
2022-12-20T11:27:26.770Z,37.17
2022-12-20T11:30:17.468Z,40.30
2022-12-20T11:32:52.891Z,40.47
2022-12-20T11:35:41.062Z,40.40
2022-12-20T11:38:28.183Z,41.63
2022-12-20T11:41:06.058Z,41.20
2022-12-20T11:47:17.874Z,38.72
2022-12-20T11:50:28.577Z,38.78
2022-12-20T11:53:20.309Z,38.80
2022-12-20T11:55:55.940Z,38.90
2022-12-20T11:58:36.530Z,40.83
2022-12-20T12:01:17.090Z,42.95
2022-12-20T12:04:14.630Z,38.88
2022-12-20T12:07:01.301Z,40.17
2022-12-20T12:09:55.809Z,40.83
2022-12-20T12:12:48.911Z,45.17
2022-12-20T12:15:26.989Z,39.88
2022-12-20T12:18:12.829Z,46.55
2022-12-20T12:21:10.056Z,45.50
2022-12-20T12:23:45.347Z,50.53
2022-12-20T12:26:25.423Z,48.53
2022-12-20T12:29:01.375Z,46.60
2022-12-20T12:31:43.835Z,47.47
2022-12-20T12:34:34.243Z,43.25
2022-12-20T12:37:30.981Z,43.50
2022-12-20T12:40:43.911Z,38.53
2022-12-20T12:43:40.934Z,37.78
2022-12-20T12:46:36.000Z,39.08
2022-12-20T12:49:18.177Z,41.75
2022-12-20T12:51:55.002Z,40.83
2022-12-20T12:54:36.247Z,42.47
2022-12-20T12:57:16.714Z,41.95
2022-12-20T12:59:52.481Z,45.20
2022-12-20T13:02:28.579Z,43.25
2022-12-20T13:05:11.331Z,43.60
2022-12-20T13:07:44.053Z,41.65
2022-12-20T13:10:15.848Z,39.30
2022-12-20T13:12:50.672Z,45.58
2022-12-20T13:15:22.750Z,44.03
2022-12-20T13:17:58.505Z,44.45
2022-12-20T13:20:33.777Z,48.92
2022-12-20T13:23:08.515Z,41.58
2022-12-20T13:25:54.542Z,46.60
2022-12-20T13:28:26.501Z,39.78
2022-12-20T13:30:58.498Z,40.55
2022-12-20T13:33:47.833Z,44.60
2022-12-20T13:36:38.309Z,39.55
2022-12-20T13:39:22.612Z,37.25
2022-12-20T13:42:28.105Z,41.63
2022-12-20T13:45:03.184Z,42.53
2022-12-20T13:47:42.501Z,38.95
2022-12-20T13:50:26.243Z,43.33
2022-12-20T13:52:58.936Z,39.38
2022-12-20T13:55:38.953Z,42.55
2022-12-20T13:58:14.838Z,44.07
2022-12-20T14:00:48.022Z,43.90
2022-12-20T14:03:28.113Z,46.05
2022-12-20T14:06:03.544Z,48.63
2022-12-20T14:08:41.294Z,61.95
2022-12-20T14:11:14.400Z,61.67
2022-12-20T14:14:14.012Z,69.30
2022-12-20T14:16:46.017Z,58.95
2022-12-20T14:19:18.278Z,61.45
2022-12-20T14:21:51.023Z,61.47
2022-12-20T14:24:23.183Z,58.75
2022-12-20T14:26:56.104Z,54.53
2022-12-20T14:29:32.282Z,56.58
2022-12-20T14:32:05.756Z,52.55
2022-12-20T14:34:42.023Z,58.13
2022-12-20T14:37:38.721Z,58.50
2022-12-20T14:40:10.677Z,49.10
2022-12-20T14:42:42.704Z,50.72
2022-12-20T14:45:14.645Z,46.95
2022-12-20T14:47:55.781Z,43.25
2022-12-20T14:50:35.532Z,43.88
2022-12-20T14:53:30.395Z,49.45
2022-12-20T14:56:02.764Z,46.17
2022-12-20T14:58:35.048Z,43.25
2022-12-20T15:01:16.312Z,44.75
2022-12-20T15:03:59.970Z,71.95
2022-12-20T15:06:42.874Z,56.70
2022-12-20T15:09:17.604Z,52.88
2022-12-20T15:11:51.909Z,54.70
2022-12-20T15:14:39.676Z,49.92
2022-12-20T15:17:14.771Z,50.55
2022-12-20T15:19:46.840Z,48.13
2022-12-20T15:22:20.636Z,48.85
2022-12-20T15:24:52.647Z,45.50
2022-12-20T15:27:24.881Z,51.13
2022-12-20T15:29:56.850Z,62.47
2022-12-20T15:32:30.137Z,51.22
2022-12-20T15:35:03.833Z,59.08
2022-12-20T15:37:35.833Z,62.28
2022-12-20T15:40:11.109Z,58.22
2022-12-20T15:42:44.172Z,86.57
2022-12-20T15:45:16.635Z,120.18
2022-12-20T15:47:49.363Z,113.60
2022-12-20T15:50:21.284Z,86.38
2022-12-20T15:52:53.356Z,73.95
2022-12-20T15:55:25.459Z,51.67
2022-12-20T15:57:57.376Z,46.20
2022-12-20T16:00:29.288Z,50.58
2022-12-20T16:03:02.716Z,50.58
2022-12-20T16:05:36.100Z,49.03
2022-12-20T16:08:08.609Z,49.92
2022-12-20T16:10:40.711Z,45.85
2022-12-20T16:13:21.092Z,45.80
2022-12-20T16:15:54.180Z,43.67
2022-12-20T16:18:31.458Z,43.92
2022-12-20T16:21:15.401Z,50.20
2022-12-20T16:23:48.029Z,49.92
2022-12-20T16:26:23.213Z,44.80
2022-12-20T16:28:56.805Z,52.58
2022-12-20T16:31:36.342Z,49.25
2022-12-20T16:34:14.350Z,44.58
2022-12-20T16:36:47.077Z,47.05
2022-12-20T16:39:19.894Z,47.47
2022-12-20T16:41:51.834Z,47.47
2022-12-20T16:44:31.313Z,49.38
2022-12-20T16:47:03.432Z,46.40
2022-12-20T16:49:35.574Z,43.53
2022-12-20T16:52:18.779Z,45.75
2022-12-20T16:54:52.035Z,46.83
2022-12-20T16:57:24.403Z,52.55
2022-12-20T17:00:08.876Z,55.03
2022-12-20T17:02:41.009Z,54.10
2022-12-20T17:05:33.757Z,49.10
2022-12-20T17:10:52.586Z,52.28
2022-12-20T17:13:24.582Z,51.45
2022-12-20T17:15:56.944Z,57.53
2022-12-20T17:18:29.352Z,67.40
2022-12-20T17:21:02.348Z,52.58
2022-12-20T17:23:38.293Z,55.63
2022-12-20T17:26:15.142Z,55.15
2022-12-20T17:28:48.145Z,65.18
2022-12-20T17:31:27.180Z,75.05
2022-12-20T17:33:59.411Z,56.47
2022-12-20T17:36:37.579Z,50.90
2022-12-20T17:39:10.030Z,45.50
2022-12-20T17:41:43.039Z,53.15
2022-12-20T17:44:23.926Z,54.22
2022-12-20T17:46:57.040Z,51.10
2022-12-20T17:49:29.093Z,56.33
2022-12-20T17:52:00.985Z,52.72
2022-12-20T17:54:39.575Z,52.75
2022-12-20T17:57:16.473Z,56.70
2022-12-20T17:59:48.345Z,53.42
2022-12-20T18:02:23.269Z,52.10
2022-12-20T18:04:55.418Z,51.80
2022-12-20T18:07:27.357Z,48.60
2022-12-20T18:09:59.582Z,48.00
2022-12-20T18:12:37.051Z,53.72
2022-12-20T18:15:10.634Z,51.50
2022-12-20T18:17:45.289Z,49.05
2022-12-20T18:20:17.768Z,49.55
2022-12-20T18:22:49.868Z,56.20
2022-12-20T18:25:21.870Z,50.35
2022-12-20T18:27:53.848Z,48.97
2022-12-20T18:30:25.749Z,48.78
2022-12-20T18:32:57.728Z,52.60
2022-12-20T18:35:32.716Z,49.25
2022-12-20T18:38:05.415Z,46.47
2022-12-20T18:40:37.269Z,52.15
2022-12-20T18:43:09.221Z,44.58
2022-12-20T18:45:43.988Z,44.63
2022-12-20T18:48:16.010Z,43.78
2022-12-20T18:50:47.961Z,51.63
2022-12-20T18:53:19.918Z,49.40
2022-12-20T18:55:51.905Z,48.60
2022-12-20T18:58:26.679Z,50.10
2022-12-20T19:01:27.176Z,53.55
2022-12-20T19:07:08.551Z,104.43
2022-12-20T19:09:40.519Z,105.07
2022-12-20T19:12:12.455Z,86.20
2022-12-20T19:14:44.422Z,52.30
2022-12-20T19:17:16.635Z,47.13
2022-12-20T19:19:48.673Z,47.13
2022-12-20T19:22:20.698Z,52.63
2022-12-20T19:24:55.744Z,47.10
2022-12-20T19:27:31.111Z,48.00
2022-12-20T19:30:04.204Z,54.88
2022-12-20T19:32:36.155Z,45.47
2022-12-20T19:35:45.246Z,49.75
2022-12-20T19:38:01.357Z,50.78
2022-12-20T19:40:33.341Z,50.25
2022-12-20T19:43:08.466Z,48.72
2022-12-20T19:46:01.393Z,48.45
2022-12-20T19:48:37.560Z,45.65
2022-12-20T19:51:22.148Z,48.63
2022-12-20T19:54:02.629Z,50.60
2022-12-20T19:56:36.433Z,44.08
2022-12-20T19:59:12.162Z,46.15
2022-12-20T20:01:44.967Z,47.13
2022-12-20T20:04:17.373Z,47.42
2022-12-20T20:06:49.343Z,45.53
2022-12-20T20:09:21.394Z,51.65
2022-12-20T20:11:53.437Z,45.85
2022-12-20T20:14:27.676Z,53.00
2022-12-20T20:16:59.532Z,48.08
2022-12-20T20:19:32.526Z,51.17
2022-12-20T20:22:06.483Z,51.28
2022-12-20T20:24:38.569Z,50.58
2022-12-20T20:27:10.895Z,51.47
2022-12-20T20:29:42.887Z,47.97
2022-12-20T20:32:14.845Z,53.40
2022-12-20T20:34:46.769Z,51.55
2022-12-20T20:37:18.868Z,49.63
2022-12-20T20:39:50.816Z,51.17
2022-12-20T20:42:23.534Z,49.03
2022-12-20T20:44:55.719Z,49.83
2022-12-20T20:47:27.678Z,53.28
2022-12-20T20:49:59.847Z,53.95
2022-12-20T20:52:32.025Z,55.58
2022-12-20T20:55:05.187Z,47.97
2022-12-20T20:57:37.360Z,53.63
2022-12-20T21:00:10.105Z,53.80
2022-12-20T21:02:42.711Z,51.78
2022-12-20T21:08:07.217Z,53.40
2022-12-20T21:10:39.399Z,60.15
2022-12-20T21:13:12.440Z,58.85
2022-12-20T21:15:46.058Z,49.90
2022-12-20T21:18:18.539Z,45.42
2022-12-20T21:20:50.746Z,47.58
2022-12-20T21:23:22.850Z,49.67
2022-12-20T21:25:58.864Z,49.72
2022-12-20T21:28:31.905Z,49.65
2022-12-20T21:31:06.853Z,57.30
2022-12-20T21:33:39.367Z,59.03
2022-12-20T21:36:14.335Z,59.35
2022-12-20T21:38:51.124Z,58.35
2022-12-20T21:41:25.437Z,49.13
2022-12-20T21:44:01.011Z,54.05
2022-12-20T21:46:33.373Z,73.35
2022-12-20T21:49:05.407Z,72.45
2022-12-20T21:51:37.385Z,78.90
2022-12-20T21:54:09.855Z,68.70
2022-12-20T21:56:41.774Z,60.50
2022-12-20T21:59:13.955Z,59.78
2022-12-20T22:01:47.398Z,54.58
2022-12-20T22:04:19.704Z,54.17
2022-12-20T22:06:51.753Z,61.88
2022-12-20T22:09:23.802Z,53.72
2022-12-20T22:11:55.810Z,47.97
2022-12-20T22:14:27.755Z,43.17
2022-12-20T22:16:59.695Z,50.08
2022-12-20T22:19:31.832Z,61.13
2022-12-20T22:22:03.804Z,65.82
2022-12-20T22:24:37.549Z,67.38
2022-12-20T22:27:11.705Z,57.10
2022-12-20T22:29:43.708Z,67.85
2022-12-20T22:32:15.728Z,62.13
2022-12-20T22:34:47.850Z,63.22
2022-12-20T22:37:19.831Z,69.95
2022-12-20T22:39:51.824Z,58.63
2022-12-20T22:42:23.829Z,55.85
2022-12-20T22:44:55.764Z,56.95
2022-12-20T22:50:13.767Z,61.45
2022-12-20T22:52:45.738Z,58.20
2022-12-20T22:55:17.769Z,59.38
2022-12-20T22:57:49.713Z,62.50
2022-12-20T23:00:22.059Z,68.65
2022-12-20T23:02:54.167Z,59.67
2022-12-20T23:05:26.282Z,65.57
2022-12-20T23:07:58.402Z,76.03
2022-12-20T23:10:48.898Z,77.07
2022-12-20T23:13:39.597Z,61.95
2022-12-20T23:16:12.932Z,56.70
2022-12-20T23:18:45.056Z,56.42
2022-12-20T23:21:35.467Z,60.60
2022-12-20T23:24:08.201Z,59.65
2022-12-20T23:26:40.928Z,59.78
2022-12-20T23:29:14.832Z,63.00
2022-12-20T23:31:46.996Z,56.75
2022-12-20T23:34:18.923Z,54.70
2022-12-20T23:36:50.866Z,62.60
2022-12-20T23:39:22.781Z,58.65
2022-12-20T23:41:54.702Z,53.00
2022-12-20T23:44:26.632Z,61.55
2022-12-20T23:46:58.568Z,58.97
2022-12-20T23:49:30.488Z,60.17
2022-12-20T23:52:02.471Z,57.40
2022-12-20T23:54:34.347Z,60.00
2022-12-20T23:57:06.298Z,55.45
2022-12-20T23:59:38.980Z,60.92
